Time;durP1;ratioP1;P1;durP2;ratioP2;P2;SDS_P1;SDS_P2;PMS_P1;PMS_P2;Temp;Humidity;BMP_temperature;BMP_pressure;BME280_temperature;BME280_humidity;BME280_pressure;Samples;Min_cycle;Max_cycle;Signal;HPM_P1;HPM_P2
2022/06/10 00:00:26;;;;;;;1.48;1.48;;;21.20;99.90;;;;;;5041134;28;20252;-54
2022/06/10 00:02:54;;;;;;;1.75;1.65;;;21.30;99.90;;;;;;5046803;28;20197;-56
2022/06/10 00:05:24;;;;;;;1.75;1.65;;;21.30;99.90;;;;;;5050384;28;20198;-54
2022/06/10 00:07:52;;;;;;;1.90;1.80;;;21.20;99.90;;;;;;5051335;28;20239;-54
2022/06/10 00:10:23;;;;;;;1.90;1.80;;;21.30;99.90;;;;;;5050170;28;20194;-55
2022/06/10 00:12:50;;;;;;;1.90;1.80;;;21.20;99.90;;;;;;5051912;28;20260;-52
2022/06/10 00:15:18;;;;;;;1.90;1.80;;;21.20;99.90;;;;;;5051133;28;20666;-55
2022/06/10 00:17:48;;;;;;;2.17;1.98;;;21.20;99.90;;;;;;5054517;28;20204;-55
2022/06/10 00:20:17;;;;;;;2.13;1.60;;;21.20;99.90;;;;;;5051870;28;20232;-56
2022/06/10 00:22:44;;;;;;;1.80;1.70;;;21.20;99.90;;;;;;5054119;28;20209;-54
2022/06/10 00:25:12;;;;;;;1.98;1.88;;;21.20;99.90;;;;;;5045831;28;20194;-54
2022/06/10 00:27:39;;;;;;;2.10;2.00;;;21.20;99.90;;;;;;5058033;28;20235;-49
2022/06/10 00:30:09;;;;;;;2.53;1.80;;;21.20;99.90;;;;;;5055889;28;20681;-54
2022/06/10 00:32:36;;;;;;;3.95;2.55;;;21.20;99.90;;;;;;5055944;28;20231;-55
2022/06/10 00:35:06;;;;;;;2.17;2.05;;;21.20;99.90;;;;;;5059753;28;20291;-53
2022/06/10 00:37:33;;;;;;;2.53;2.33;;;21.20;99.90;;;;;;5064894;28;20197;-55
2022/06/10 00:40:00;;;;;;;5.15;2.80;;;21.20;99.90;;;;;;5059757;28;20274;-53
2022/06/10 00:42:27;;;;;;;6.13;3.28;;;21.20;99.90;;;;;;5064379;28;20193;-51
2022/06/10 00:44:55;;;;;;;6.20;3.22;;;21.20;99.90;;;;;;5060946;28;20189;-55
2022/06/10 00:47:27;;;;;;;2.97;2.65;;;21.20;99.90;;;;;;5067635;28;20250;-55
2022/06/10 00:50:00;;;;;;;5.78;3.63;;;21.20;99.90;;;;;;5063806;28;20190;-52
2022/06/10 00:52:32;;;;;;;4.88;3.05;;;21.10;99.90;;;;;;5068736;28;20200;-52
2022/06/10 00:54:59;;;;;;;5.18;3.30;;;21.10;99.90;;;;;;5058163;28;20204;-53
2022/06/10 00:57:30;;;;;;;4.80;3.55;;;21.10;99.90;;;;;;5068613;28;20255;-56
2022/06/10 01:00:03;;;;;;;4.07;3.17;;;21.10;99.90;;;;;;5054989;28;20198;-52
2022/06/10 01:02:32;;;;;;;3.17;2.88;;;21.10;99.90;;;;;;5056322;28;20256;-55
2022/06/10 01:05:01;;;;;;;4.82;3.40;;;21.10;99.90;;;;;;5039315;28;20189;-53
2022/06/10 01:07:34;;;;;;;3.00;2.78;;;21.20;99.90;;;;;;5054247;28;20198;-53
2022/06/10 01:10:02;;;;;;;2.50;2.38;;;21.10;99.90;;;;;;5041972;28;20244;-54
2022/06/10 01:12:44;;;;;;;3.03;2.83;;;21.10;99.90;;;;;;5055885;28;20209;-54
2022/06/10 01:15:28;;;;;;;2.90;2.70;;;21.10;99.90;;;;;;5046187;28;20244;-52
2022/06/10 01:18:10;;;;;;;2.17;2.08;;;21.10;99.90;;;;;;5058166;28;20194;-53
2022/06/10 01:20:51;;;;;;;2.30;2.20;;;21.10;99.90;;;;;;5059978;28;20216;-52
2022/06/10 01:23:38;;;;;;;2.08;1.98;;;21.00;99.90;;;;;;5057924;28;20233;-54
2022/06/10 01:27:47;;;;;;;2.30;2.20;;;21.00;99.90;;;;;;5062327;28;20189;-54
2022/06/10 01:29:52;;;;;;;2.30;2.20;;;21.00;99.90;;;;;;5062521;28;20657;-51
2022/06/10 01:32:30;;;;;;;2.42;2.25;;;21.00;99.90;;;;;;5063533;28;20197;-48
2022/06/10 01:35:08;;;;;;;2.13;2.03;;;21.00;99.90;;;;;;5052480;28;20233;-51
2022/06/10 01:37:40;;;;;;;2.22;2.13;;;21.00;99.90;;;;;;5057897;28;20212;-52
2022/06/10 01:40:19;;;;;;;3.70;1.88;;;21.00;99.90;;;;;;5059588;28;20199;-52
2022/06/10 01:42:49;;;;;;;2.10;2.00;;;20.90;99.90;;;;;;5061475;28;20221;-50
2022/06/10 01:45:22;;;;;;;2.20;2.10;;;20.90;99.90;;;;;;5063377;28;20707;-52
2022/06/10 01:47:58;;;;;;;2.75;2.55;;;20.90;99.90;;;;;;5063069;28;20285;-50
2022/06/10 01:50:40;;;;;;;2.30;2.20;;;20.90;99.90;;;;;;5067842;28;20258;-52
2022/06/10 01:53:12;;;;;;;2.47;2.38;;;20.90;99.90;;;;;;5064865;28;20595;-50
2022/06/10 01:55:45;;;;;;;2.40;2.30;;;20.90;99.90;;;;;;5060819;28;20278;-50
2022/06/10 01:58:16;;;;;;;2.70;2.50;;;20.90;99.90;;;;;;5066493;28;20672;-53
2022/06/10 02:00:52;;;;;;;2.97;2.70;;;20.90;99.90;;;;;;5047760;28;20284;-51
2022/06/10 02:03:26;;;;;;;2.78;2.58;;;20.90;99.90;;;;;;5050327;28;20205;-51
2022/06/10 02:05:58;;;;;;;2.80;2.70;;;20.90;99.90;;;;;;5070223;28;20197;-51
2022/06/10 02:08:30;;;;;;;2.40;2.30;;;20.90;99.90;;;;;;5052889;28;20592;-50
2022/06/10 02:11:02;;;;;;;2.05;1.95;;;20.90;99.90;;;;;;5055586;28;20750;-53
2022/06/10 02:13:33;;;;;;;2.10;2.00;;;20.90;99.90;;;;;;5053042;28;20241;-49
2022/06/10 02:16:02;;;;;;;2.50;2.40;;;20.90;99.90;;;;;;5057539;28;20201;-53
2022/06/10 02:18:35;;;;;;;1.88;1.77;;;20.90;99.90;;;;;;5054285;28;20248;-48
2022/06/10 02:21:06;;;;;;;1.85;1.75;;;20.90;99.90;;;;;;5061837;28;20217;-48
2022/06/10 02:23:37;;;;;;;2.17;2.03;;;20.80;99.90;;;;;;5059274;28;20238;-51
2022/06/10 02:26:06;;;;;;;2.65;2.38;;;20.80;99.90;;;;;;5058661;28;20680;-50
2022/06/10 02:28:37;;;;;;;2.60;2.50;;;20.80;99.90;;;;;;5058137;28;20197;-49
2022/06/10 02:31:09;;;;;;;2.55;2.35;;;20.80;99.90;;;;;;5057816;28;20557;-50
2022/06/10 02:33:38;;;;;;;2.33;2.22;;;20.80;99.90;;;;;;5060982;28;20201;-48
2022/06/10 02:36:12;;;;;;;2.10;2.00;;;20.80;99.90;;;;;;5065975;28;20217;-51
2022/06/10 02:38:55;;;;;;;1.60;1.60;;;20.80;99.90;;;;;;5062398;28;20275;-52
2022/06/10 02:41:32;;;;;;;2.17;1.98;;;20.80;99.90;;;;;;5065133;28;20213;-50
2022/06/10 02:44:08;;;;;;;1.80;1.70;;;20.80;99.90;;;;;;5046477;28;20193;-49
2022/06/10 02:46:40;;;;;;;2.00;1.90;;;20.80;99.90;;;;;;5067349;28;20213;-52
2022/06/10 02:49:11;;;;;;;1.90;1.80;;;20.70;99.90;;;;;;5057942;28;20206;-53
2022/06/10 02:51:39;;;;;;;1.50;1.40;;;20.70;99.90;;;;;;5051413;28;20343;-48
2022/06/10 02:54:09;;;;;;;1.67;1.58;;;20.60;99.90;;;;;;5051926;28;20499;-53
2022/06/10 02:56:36;;;;;;;1.45;1.45;;;20.60;99.90;;;;;;5053995;28;20286;-46
2022/06/10 03:02:12;;;;;;;1.80;1.70;;;20.60;99.90;;;;;;5049277;28;20194;-47
2022/06/10 03:04:49;;;;;;;2.08;1.98;;;20.60;99.90;;;;;;5049328;28;20557;-48
2022/06/10 03:07:43;;;;;;;1.58;1.50;;;20.60;99.90;;;;;;5049972;28;20684;-51
2022/06/10 03:10:21;;;;;;;1.90;1.80;;;20.60;99.90;;;;;;5050208;28;20277;-49
2022/06/10 03:13:03;;;;;;;1.95;1.85;;;20.60;99.90;;;;;;5053370;28;20243;-49
2022/06/10 03:15:49;;;;;;;1.70;1.60;;;20.60;99.90;;;;;;5052786;28;20210;-48
2022/06/10 03:18:27;;;;;;;2.00;1.90;;;20.60;99.90;;;;;;5051990;28;20535;-46
2022/06/10 03:21:04;;;;;;;2.47;2.38;;;20.60;99.90;;;;;;5055446;28;20688;-48
2022/06/10 03:23:39;;;;;;;2.65;2.45;;;20.60;99.90;;;;;;5049128;28;20230;-49
2022/06/10 03:26:14;;;;;;;2.80;2.60;;;20.60;99.90;;;;;;5056020;28;20190;-46
2022/06/10 03:28:49;;;;;;;2.55;2.45;;;20.60;99.90;;;;;;5058382;28;20266;-46
2022/06/10 03:31:19;;;;;;;3.88;3.67;;;20.60;99.90;;;;;;5057983;28;20205;-49
2022/06/10 03:33:51;;;;;;;3.58;3.33;;;20.60;99.90;;;;;;5060351;28;20266;-46
2022/06/10 03:36:24;;;;;;;3.70;3.40;;;20.60;99.90;;;;;;5057310;28;20930;-53
2022/06/10 03:38:53;;;;;;;3.70;3.50;;;20.60;99.90;;;;;;5060467;28;20220;-49
2022/06/10 03:41:23;;;;;;;3.40;3.20;;;20.60;99.90;;;;;;5055086;28;20732;-49
2022/06/10 03:43:52;;;;;;;3.30;3.10;;;20.60;99.90;;;;;;5062458;28;20197;-50
2022/06/10 03:46:22;;;;;;;3.17;2.97;;;20.60;99.90;;;;;;5057372;28;20194;-51
2022/06/10 03:48:51;;;;;;;3.15;2.95;;;20.60;99.90;;;;;;5063407;28;20231;-50
2022/06/10 03:51:21;;;;;;;3.25;3.05;;;20.60;99.90;;;;;;5058219;28;20229;-48
2022/06/10 03:53:50;;;;;;;3.15;2.95;;;20.60;99.90;;;;;;5058968;28;20620;-50
2022/06/10 03:56:22;;;;;;;3.25;3.05;;;20.60;99.90;;;;;;5056513;28;20263;-47
2022/06/10 03:58:49;;;;;;;3.30;3.10;;;20.60;99.90;;;;;;5064365;28;20589;-52
2022/06/10 04:01:16;;;;;;;3.00;2.80;;;20.60;99.90;;;;;;5039124;28;20190;-55
2022/06/10 04:03:43;;;;;;;3.20;3.00;;;20.60;99.90;;;;;;5053254;28;20278;-53
2022/06/10 04:06:12;;;;;;;3.28;3.08;;;20.50;99.90;;;;;;5056320;28;20213;-54
2022/06/10 04:08:40;;;;;;;3.20;3.00;;;20.50;99.90;;;;;;5055408;28;20206;-55
2022/06/10 04:11:07;;;;;;;3.70;3.40;;;20.50;99.90;;;;;;5057289;28;20220;-54
2022/06/10 04:13:34;;;;;;;3.40;3.20;;;20.50;99.90;;;;;;5055247;28;20712;-55
2022/06/10 04:16:01;;;;;;;4.00;3.70;;;20.50;99.90;;;;;;5059002;28;20226;-54
2022/06/10 04:18:29;;;;;;;3.30;3.10;;;20.50;99.90;;;;;;5049389;28;20285;-54
2022/06/10 04:20:56;;;;;;;3.70;3.40;;;20.50;99.90;;;;;;5060534;28;20201;-53
2022/06/10 04:23:23;;;;;;;3.83;3.47;;;20.50;99.90;;;;;;5057955;28;20283;-54
2022/06/10 04:25:51;;;;;;;3.10;2.90;;;20.50;99.90;;;;;;5062872;28;20202;-54
2022/06/10 04:28:18;;;;;;;3.97;3.67;;;20.50;99.90;;;;;;5051536;28;20732;-56
2022/06/10 04:30:48;;;;;;;4.80;4.32;;;20.50;99.90;;;;;;5066684;28;20280;-54
2022/06/10 04:33:16;;;;;;;3.83;3.53;;;20.50;99.90;;;;;;5062802;28;20201;-56
2022/06/10 04:35:45;;;;;;;3.25;3.05;;;20.50;99.90;;;;;;5068325;28;20298;-54
2022/06/10 04:38:14;;;;;;;4.10;3.80;;;20.50;99.90;;;;;;5064833;28;20222;-54
2022/06/10 04:40:41;;;;;;;4.50;4.10;;;20.50;99.90;;;;;;5067639;28;20255;-55
2022/06/10 04:43:10;;;;;;;4.70;4.30;;;20.50;99.90;;;;;;5066387;28;20264;-56
2022/06/10 04:45:40;;;;;;;4.60;4.20;;;20.50;99.90;;;;;;5070103;28;20185;-54
2022/06/10 04:48:10;;;;;;;4.35;4.03;;;20.50;99.90;;;;;;5069250;28;20266;-54
2022/06/10 04:50:38;;;;;;;3.67;3.45;;;20.50;99.90;;;;;;5070811;28;20221;-55
2022/06/10 04:53:05;;;;;;;4.53;4.13;;;20.50;99.90;;;;;;5069907;28;20288;-52
2022/06/10 04:55:32;;;;;;;5.18;4.68;;;20.50;99.90;;;;;;5062178;28;20201;-55
2022/06/10 04:57:59;;;;;;;4.80;4.40;;;20.50;99.90;;;;;;5053775;28;20205;-54
2022/06/10 05:00:30;;;;;;;5.93;5.32;;;20.50;99.90;;;;;;5041101;28;20234;-55
2022/06/10 05:02:58;;;;;;;5.82;5.22;;;20.50;99.90;;;;;;5050094;28;20193;-53
2022/06/10 05:05:25;;;;;;;6.32;5.70;;;20.50;99.90;;;;;;5051720;28;20201;-54
2022/06/10 05:07:52;;;;;;;5.22;4.55;;;20.50;99.90;;;;;;5054591;28;20600;-51
2022/06/10 05:10:20;;;;;;;5.50;5.00;;;20.50;99.90;;;;;;5053205;28;20208;-55
2022/06/10 05:12:47;;;;;;;4.90;4.50;;;20.40;99.90;;;;;;5057944;28;20570;-52
2022/06/10 05:15:15;;;;;;;4.25;3.85;;;20.40;99.90;;;;;;5055920;28;20290;-54
2022/06/10 05:17:44;;;;;;;4.65;4.25;;;20.40;99.90;;;;;;5060542;28;20240;-52
2022/06/10 05:20:15;;;;;;;4.50;4.10;;;20.40;99.90;;;;;;5054740;28;20222;-51
2022/06/10 05:22:42;;;;;;;4.68;4.28;;;20.40;99.90;;;;;;5062532;28;20190;-54
2022/06/10 05:25:10;;;;;;;4.18;3.88;;;20.40;99.90;;;;;;5057506;28;20724;-53
2022/06/10 05:27:37;;;;;;;4.20;3.88;;;20.40;99.90;;;;;;5064457;28;20193;-54
2022/06/10 05:30:06;;;;;;;4.05;3.75;;;20.40;99.90;;;;;;5061147;28;20279;-48
2022/06/10 05:32:33;;;;;;;5.53;5.03;;;20.40;99.90;;;;;;5066430;28;20271;-51
2022/06/10 05:35:01;;;;;;;4.80;4.40;;;20.40;99.90;;;;;;5062628;28;20202;-49
2022/06/10 05:37:28;;;;;;;6.82;5.72;;;20.40;99.90;;;;;;5066921;28;20207;-52
2022/06/10 05:39:56;;;;;;;5.28;4.78;;;20.40;99.90;;;;;;5064373;28;20194;-52
2022/06/10 05:42:23;;;;;;;4.28;3.95;;;20.40;99.90;;;;;;5067890;28;20301;-50
2022/06/10 05:44:52;;;;;;;4.60;4.20;;;20.40;99.90;;;;;;5069369;28;20315;-55
2022/06/10 05:47:22;;;;;;;4.63;4.22;;;20.40;99.90;;;;;;5070991;28;20189;-53
2022/06/10 05:49:51;;;;;;;7.70;6.13;;;20.40;99.90;;;;;;5054841;28;20201;-49
2022/06/10 05:52:23;;;;;;;5.03;4.53;;;20.40;99.90;;;;;;5051170;28;20686;-54
2022/06/10 05:54:52;;;;;;;8.00;6.35;;;20.40;99.90;;;;;;5049953;28;20336;-52
2022/06/10 05:57:19;;;;;;;7.15;6.20;;;20.40;99.90;;;;;;5051121;28;20632;-46
2022/06/10 05:59:49;;;;;;;5.88;5.28;;;20.30;99.90;;;;;;5050357;28;20217;-53
2022/06/10 06:02:17;;;;;;;5.00;4.55;;;20.30;99.90;;;;;;5052185;28;20247;-48
2022/06/10 06:04:44;;;;;;;4.57;4.18;;;20.30;99.90;;;;;;5055825;28;20217;-45
2022/06/10 06:07:15;;;;;;;5.25;4.75;;;20.30;99.90;;;;;;5063036;28;20217;-49
2022/06/10 06:09:43;;;;;;;5.55;5.05;;;20.30;99.90;;;;;;5046635;28;20199;-51
2022/06/10 06:12:10;;;;;;;4.90;4.50;;;20.30;99.90;;;;;;5062292;28;20251;-53
2022/06/10 06:14:38;;;;;;;4.15;3.85;;;20.30;99.90;;;;;;5066970;28;20628;-48
2022/06/10 06:17:06;;;;;;;4.05;3.75;;;20.20;99.90;;;;;;5066714;28;20672;-53
2022/06/10 06:19:34;;;;;;;3.97;3.67;;;20.20;99.90;;;;;;5060434;28;20736;-54
2022/06/10 06:22:01;;;;;;;3.10;2.90;;;20.30;99.90;;;;;;5055158;28;20204;-47
2022/06/10 06:24:28;;;;;;;2.95;2.78;;;20.20;99.90;;;;;;5049320;28;20240;-50
2022/06/10 06:26:57;;;;;;;3.38;3.15;;;20.30;99.90;;;;;;5050657;28;20230;-50
2022/06/10 06:29:24;;;;;;;2.50;2.40;;;20.30;99.90;;;;;;5039712;28;20654;-51
2022/06/10 06:31:52;;;;;;;2.90;2.70;;;20.30;99.90;;;;;;5053234;28;20194;-49
2022/06/10 06:34:21;;;;;;;2.22;2.13;;;20.30;99.90;;;;;;5050592;28;20225;-51
2022/06/10 06:36:50;;;;;;;2.58;2.47;;;20.40;99.90;;;;;;5054854;28;20605;-51
2022/06/10 06:39:19;;;;;;;2.30;2.20;;;20.40;99.90;;;;;;5052550;28;20206;-53
2022/06/10 06:41:47;;;;;;;2.38;2.15;;;20.40;99.90;;;;;;5056074;28;20193;-53
2022/06/10 06:44:15;;;;;;;2.10;2.00;;;20.40;99.90;;;;;;5052367;28;20197;-47
2022/06/10 06:46:43;;;;;;;2.13;2.03;;;20.50;99.90;;;;;;5058630;28;21067;-51
2022/06/10 06:49:14;;;;;;;2.80;2.60;;;20.50;99.90;;;;;;5057000;28;20233;-53
2022/06/10 06:51:41;;;;;;;2.53;2.42;;;20.50;99.90;;;;;;5061002;28;20615;-49
2022/06/10 06:54:09;;;;;;;2.38;2.15;;;20.50;99.90;;;;;;5054260;28;20218;-52
2022/06/10 06:56:37;;;;;;;1.70;1.63;;;20.50;99.90;;;;;;5062646;28;20212;-53
2022/06/10 06:59:05;;;;;;;1.90;1.80;;;20.50;99.90;;;;;;5057204;28;20306;-51
2022/06/10 07:01:34;;;;;;;1.80;1.70;;;20.60;99.90;;;;;;5045243;28;20724;-52
2022/06/10 07:04:01;;;;;;;2.15;2.05;;;20.60;99.90;;;;;;5043615;28;20650;-51
2022/06/10 07:06:28;;;;;;;2.03;1.92;;;20.60;99.90;;;;;;5050720;28;20538;-48
2022/06/10 07:08:55;;;;;;;1.58;1.48;;;20.60;99.90;;;;;;5052523;28;20256;-51
2022/06/10 07:11:22;;;;;;;1.50;1.50;;;20.60;99.90;;;;;;5051847;28;20271;-54
2022/06/10 07:13:49;;;;;;;1.45;1.45;;;20.70;99.90;;;;;;5052844;28;20228;-54
2022/06/10 07:16:16;;;;;;;1.30;1.30;;;20.70;99.90;;;;;;5053901;28;20213;-48
2022/06/10 07:18:45;;;;;;;1.45;1.40;;;20.80;99.90;;;;;;5054865;28;20621;-49
2022/06/10 07:21:12;;;;;;;1.42;1.42;;;20.80;99.90;;;;;;5055302;28;20213;-53
2022/06/10 07:23:39;;;;;;;1.50;1.40;;;20.80;99.90;;;;;;5056187;28;20408;-52
2022/06/10 07:26:06;;;;;;;1.20;1.20;;;20.80;99.90;;;;;;5057456;28;20229;-52
2022/06/10 07:28:33;;;;;;;2.00;1.90;;;20.80;99.90;;;;;;5057383;28;20594;-54
2022/06/10 07:31:00;;;;;;;2.28;1.63;;;20.90;99.90;;;;;;5060507;28;20635;-53
2022/06/10 07:33:28;;;;;;;2.45;1.40;;;20.90;99.90;;;;;;5059466;28;20657;-51
2022/06/10 07:35:57;;;;;;;1.63;1.52;;;20.90;99.90;;;;;;5061683;28;20250;-54
2022/06/10 07:38:24;;;;;;;1.50;1.40;;;21.00;99.90;;;;;;5061804;28;20269;-53
2022/06/10 07:43:36;;;;;;;1.00;1.00;;;21.10;99.90;;;;;;5064681;28;20196;-54
2022/06/10 07:46:05;;;;;;;0.90;0.90;;;21.10;99.90;;;;;;5066172;28;20267;-54
2022/06/10 07:48:32;;;;;;;1.00;1.00;;;21.20;99.90;;;;;;5066192;28;20646;-53
2022/06/10 07:51:01;;;;;;;0.90;0.90;;;21.20;99.90;;;;;;5066996;28;20194;-54
2022/06/10 07:53:30;;;;;;;1.10;1.10;;;21.20;99.90;;;;;;5054025;28;20220;-55
2022/06/10 07:55:57;;;;;;;1.02;1.02;;;21.30;99.90;;;;;;5060274;28;20200;-54
2022/06/10 07:58:25;;;;;;;1.02;1.02;;;21.30;99.90;;;;;;5050124;28;20213;-51
2022/06/10 08:00:52;;;;;;;1.40;1.40;;;21.30;99.90;;;;;;5050335;28;20201;-55
2022/06/10 08:03:20;;;;;;;1.40;1.30;;;21.30;99.90;;;;;;5037631;28;20650;-55
2022/06/10 08:05:47;;;;;;;0.90;0.90;;;21.30;99.90;;;;;;5049353;28;20221;-55
2022/06/10 08:08:18;;;;;;;1.23;0.90;;;21.40;99.90;;;;;;5050896;28;20194;-55
2022/06/10 08:10:46;;;;;;;1.10;1.10;;;21.40;99.90;;;;;;5052692;28;20205;-54
2022/06/10 08:13:14;;;;;;;0.98;0.90;;;21.50;99.90;;;;;;5052943;28;20247;-54
2022/06/10 08:15:42;;;;;;;0.90;0.90;;;21.50;99.90;;;;;;5055607;28;20653;-53
2022/06/10 08:18:10;;;;;;;1.10;1.10;;;21.60;99.90;;;;;;5055950;28;20209;-49
2022/06/10 08:23:26;;;;;;;1.25;1.25;;;21.60;99.90;;;;;;5056661;28;20234;-56
2022/06/10 08:25:54;;;;;;;1.92;1.10;;;21.60;99.90;;;;;;5060267;28;20194;-56
2022/06/10 08:28:22;;;;;;;1.55;1.45;;;21.60;99.90;;;;;;5057519;28;20629;-54
2022/06/10 08:30:50;;;;;;;1.10;1.10;;;21.70;99.90;;;;;;5063464;28;20204;-54
2022/06/10 08:33:17;;;;;;;1.40;1.40;;;21.80;99.90;;;;;;5049329;28;20229;-55
2022/06/10 08:35:45;;;;;;;2.65;1.33;;;21.80;99.90;;;;;;5065078;28;20202;-55
2022/06/10 08:38:15;;;;;;;1.95;1.13;;;21.80;99.90;;;;;;5062562;28;20296;-55
2022/06/10 08:40:49;;;;;;;1.30;1.30;;;21.80;99.90;;;;;;5065856;28;20221;-55
2022/06/10 08:43:29;;;;;;;1.30;1.20;;;21.80;99.90;;;;;;5052333;28;20200;-54
2022/06/10 08:46:04;;;;;;;1.10;1.10;;;21.80;99.90;;;;;;5059378;28;20193;-53
2022/06/10 08:48:40;;;;;;;1.33;1.23;;;21.80;99.90;;;;;;5053924;28;20284;-54
2022/06/10 08:51:17;;;;;;;1.30;1.30;;;21.90;99.90;;;;;;5053715;28;20713;-54
2022/06/10 08:54:23;;;;;;;1.08;1.08;;;21.90;99.90;;;;;;5053406;28;20243;-54
2022/06/10 08:56:54;;;;;;;1.10;1.10;;;21.90;99.90;;;;;;5011150;28;20253;-52
2022/06/10 08:59:29;;;;;;;1.30;1.20;;;22.00;99.90;;;;;;5045559;28;20218;-53
2022/06/10 09:02:05;;;;;;;1.10;1.10;;;22.00;99.90;;;;;;5040602;28;20554;-53
2022/06/10 09:04:46;;;;;;;1.42;1.30;;;22.00;99.90;;;;;;5050561;28;20664;-54
2022/06/10 09:07:27;;;;;;;1.23;1.20;;;22.00;99.90;;;;;;5053753;28;20204;-54
2022/06/10 09:09:56;;;;;;;2.45;1.40;;;21.90;99.90;;;;;;5043474;28;20225;-54
2022/06/10 09:12:53;;;;;;;5.35;1.40;;;22.00;99.90;;;;;;5055906;28;20264;-53
2022/06/10 09:15:21;;;;;;;1.08;1.08;;;22.00;99.90;;;;;;5056074;28;20204;-55
2022/06/10 09:17:54;;;;;;;1.30;1.20;;;22.00;99.90;;;;;;5057531;28;20218;-54
2022/06/10 09:20:28;;;;;;;1.40;1.30;;;22.10;99.90;;;;;;5058086;28;20212;-54
2022/06/10 09:22:58;;;;;;;1.30;1.30;;;22.20;99.90;;;;;;5058742;28;20249;-52
2022/06/10 09:25:31;;;;;;;1.20;1.20;;;22.30;99.90;;;;;;5055340;28;20695;-53
2022/06/10 09:28:01;;;;;;;1.38;1.27;;;22.30;99.90;;;;;;5056632;28;20190;-55
2022/06/10 09:30:35;;;;;;;1.30;1.30;;;22.40;99.90;;;;;;5063260;28;20601;-53
2022/06/10 09:33:10;;;;;;;1.17;1.13;;;22.40;99.90;;;;;;5057730;28;20198;-51
2022/06/10 09:35:42;;;;;;;1.45;1.35;;;22.40;99.90;;;;;;5065348;28;20196;-48
2022/06/10 09:38:16;;;;;;;1.20;1.10;;;22.40;99.90;;;;;;5057711;28;20244;-48
2022/06/10 09:41:00;;;;;;;1.63;1.52;;;22.40;99.90;;;;;;5064368;28;20653;-49
2022/06/10 09:43:53;;;;;;;3.42;1.63;;;22.40;99.90;;;;;;5065251;28;20326;-49
2022/06/10 09:46:34;;;;;;;1.40;1.30;;;22.30;99.90;;;;;;5062657;28;20217;-48
2022/06/10 09:49:16;;;;;;;2.20;1.58;;;22.30;99.90;;;;;;5066356;28;20185;-51
2022/06/10 09:51:53;;;;;;;1.58;1.48;;;22.40;99.90;;;;;;5046456;28;20201;-53
2022/06/10 09:54:35;;;;;;;1.30;1.20;;;22.30;99.90;;;;;;5060787;28;20271;-54
2022/06/10 09:57:16;;;;;;;1.20;1.20;;;22.30;99.90;;;;;;5067775;28;20196;-52
2022/06/10 09:59:52;;;;;;;1.00;1.00;;;22.30;99.90;;;;;;5061690;28;20255;-51
2022/06/10 10:02:31;;;;;;;3.97;1.15;;;22.30;99.90;;;;;;5037010;28;20244;-46
2022/06/10 10:05:21;;;;;;;1.00;1.00;;;22.40;99.90;;;;;;5039026;28;20748;-50
2022/06/10 10:07:52;;;;;;;1.30;1.30;;;22.40;99.90;;;;;;5051967;28;20213;-50
2022/06/10 10:10:27;;;;;;;0.80;0.80;;;22.50;99.90;;;;;;5050396;28;20193;-51
2022/06/10 10:13:23;;;;;;;1.15;1.15;;;22.50;99.90;;;;;;5052327;28;20280;-52
2022/06/10 10:16:01;;;;;;;1.20;1.20;;;22.40;99.90;;;;;;5055368;28;20661;-48
2022/06/10 10:18:45;;;;;;;1.35;1.25;;;22.40;99.90;;;;;;5053455;28;20217;-55
2022/06/10 10:21:14;;;;;;;1.15;1.15;;;22.30;99.90;;;;;;5055363;28;20549;-55
2022/06/10 10:23:44;;;;;;;1.17;1.17;;;22.30;99.90;;;;;;5056986;28;20794;-49
2022/06/10 10:26:22;;;;;;;1.00;1.00;;;22.30;99.90;;;;;;5054862;28;20208;-51
2022/06/10 10:28:52;;;;;;;0.90;0.90;;;22.30;99.90;;;;;;5058856;28;20190;-54
2022/06/10 10:31:26;;;;;;;1.42;1.00;;;22.30;99.90;;;;;;5053742;28;20666;-52
2022/06/10 10:33:54;;;;;;;1.00;1.00;;;22.30;99.90;;;;;;5062643;28;20211;-50
2022/06/10 10:36:35;;;;;;;2.05;1.20;;;22.40;99.90;;;;;;5057713;28;20530;-54
2022/06/10 10:39:16;;;;;;;1.02;1.02;;;22.40;99.90;;;;;;5063308;28;20680;-51
2022/06/10 10:41:46;;;;;;;0.90;0.90;;;22.40;99.90;;;;;;5059491;28;20611;-48
2022/06/10 10:44:29;;;;;;;0.93;0.93;;;22.50;99.90;;;;;;5059284;28;20201;-53
2022/06/10 10:47:02;;;;;;;0.98;0.98;;;22.50;99.90;;;;;;5066019;28;20204;-52
2022/06/10 10:49:32;;;;;;;1.30;1.23;;;22.60;99.90;;;;;;5062375;28;20197;-52
2022/06/10 10:52:00;;;;;;;1.02;1.02;;;22.60;99.90;;;;;;5066103;28;20205;-54
2022/06/10 10:54:30;;;;;;;0.98;0.98;;;22.60;99.90;;;;;;5058467;28;20771;-52
2022/06/10 10:56:59;;;;;;;1.05;1.00;;;22.70;99.90;;;;;;5067494;28;20197;-54
2022/06/10 10:59:33;;;;;;;1.13;1.13;;;22.70;99.90;;;;;;5062340;28;20209;-53
2022/06/10 11:02:03;;;;;;;1.33;1.23;;;22.80;99.90;;;;;;5049410;28;20221;-53
2022/06/10 11:04:33;;;;;;;6.10;1.00;;;22.90;99.90;;;;;;5061756;28;20243;-52
2022/06/10 11:07:04;;;;;;;1.75;1.00;;;23.00;99.90;;;;;;5048578;28;20201;-55
2022/06/10 11:09:33;;;;;;;1.13;1.00;;;23.10;99.90;;;;;;5053731;28;20193;-54
2022/06/10 11:12:05;;;;;;;0.98;0.90;;;23.00;99.90;;;;;;5051713;28;20271;-55
2022/06/10 11:14:36;;;;;;;1.17;1.02;;;23.00;99.90;;;;;;5052457;28;20194;-55
2022/06/10 11:17:13;;;;;;;0.90;0.90;;;23.00;99.90;;;;;;5053333;28;20202;-52
2022/06/10 11:19:44;;;;;;;1.20;0.95;;;22.90;99.90;;;;;;5054364;28;20209;-55
2022/06/10 11:22:19;;;;;;;0.90;0.90;;;22.90;99.90;;;;;;5056867;28;20204;-56
2022/06/10 11:24:50;;;;;;;1.08;0.98;;;23.00;99.90;;;;;;5053398;28;20225;-54
2022/06/10 11:27:26;;;;;;;1.50;1.40;;;23.00;99.90;;;;;;5058902;28;20204;-53
2022/06/10 11:30:05;;;;;;;1.00;1.00;;;23.10;99.90;;;;;;5047542;28;20211;-54
2022/06/10 11:32:37;;;;;;;1.05;1.05;;;23.10;99.90;;;;;;5063115;28;20290;-52
2022/06/10 11:35:20;;;;;;;1.00;1.00;;;23.10;99.90;;;;;;5061154;28;20194;-54
2022/06/10 11:37:50;;;;;;;1.75;1.23;;;23.10;99.90;;;;;;5065278;28;20244;-53
2022/06/10 11:40:22;;;;;;;1.10;1.10;;;23.00;99.90;;;;;;5064103;28;20764;-54
2022/06/10 11:42:54;;;;;;;1.17;1.17;;;23.00;99.90;;;;;;5064071;28;20196;-54
2022/06/10 11:45:26;;;;;;;1.25;1.15;;;23.00;99.90;;;;;;5055878;28;20462;-53
2022/06/10 11:47:59;;;;;;;1.00;1.00;;;23.10;99.90;;;;;;5065597;28;20199;-54
2022/06/10 11:50:30;;;;;;;1.10;1.10;;;23.10;99.90;;;;;;5059193;28;20699;-54
2022/06/10 11:53:03;;;;;;;1.33;1.20;;;23.10;99.90;;;;;;5060813;28;20252;-55
2022/06/10 11:55:35;;;;;;;1.58;1.10;;;23.10;99.90;;;;;;5049530;28;20198;-54
2022/06/10 12:00:58;;;;;;;1.63;0.90;;;23.10;99.90;;;;;;5051572;28;20274;-56
2022/06/10 12:03:33;;;;;;;0.80;0.80;;;23.10;99.90;;;;;;5049123;28;20247;-55
2022/06/10 12:06:06;;;;;;;0.77;0.77;;;23.10;99.90;;;;;;5049799;28;20626;-55
2022/06/10 12:08:42;;;;;;;0.77;0.77;;;23.10;99.90;;;;;;5049537;28;20198;-53
2022/06/10 12:11:33;;;;;;;0.70;0.70;;;23.10;99.90;;;;;;5050930;28;20258;-54
2022/06/10 12:14:06;;;;;;;0.82;0.82;;;23.00;99.90;;;;;;5047409;28;20194;-54
2022/06/10 12:16:35;;;;;;;0.70;0.70;;;23.00;99.90;;;;;;5045564;28;20259;-57
2022/06/10 12:19:07;;;;;;;0.52;0.52;;;23.00;99.90;;;;;;5065751;28;20217;-54
2022/06/10 12:21:34;;;;;;;0.82;0.82;;;23.00;99.90;;;;;;5069256;28;20285;-53
2022/06/10 12:24:01;;;;;;;0.80;0.80;;;23.00;99.90;;;;;;5069693;28;20287;-53
2022/06/10 12:26:35;;;;;;;0.80;0.80;;;23.00;99.90;;;;;;5070628;28;20733;-55
2022/06/10 12:29:06;;;;;;;1.77;0.80;;;23.00;99.90;;;;;;5069916;28;20190;-53
2022/06/10 12:31:45;;;;;;;0.68;0.68;;;23.10;99.90;;;;;;5071971;28;20322;-52
2022/06/10 12:34:20;;;;;;;1.00;1.00;;;23.10;99.70;;;;;;5066533;28;20301;-54
2022/06/10 12:36:51;;;;;;;0.90;0.90;;;23.10;99.50;;;;;;5053820;28;20197;-54
2022/06/10 12:39:24;;;;;;;0.90;0.90;;;23.10;99.50;;;;;;5052978;28;20201;-54
2022/06/10 12:41:57;;;;;;;0.80;0.80;;;23.10;99.50;;;;;;5055106;28;20194;-53
2022/06/10 12:44:29;;;;;;;1.20;1.10;;;23.10;99.50;;;;;;5044950;28;20198;-54
2022/06/10 12:47:00;;;;;;;1.15;1.08;;;23.10;99.30;;;;;;5058169;28;20711;-53
2022/06/10 12:49:34;;;;;;;1.05;1.05;;;23.00;99.30;;;;;;5047181;28;20205;-53
2022/06/10 12:52:21;;;;;;;0.85;0.85;;;23.10;99.30;;;;;;5060050;28;20193;-54
2022/06/10 12:54:54;;;;;;;0.82;0.82;;;23.10;99.20;;;;;;5055615;28;20627;-53
2022/06/10 12:57:29;;;;;;;0.80;0.80;;;23.10;98.70;;;;;;5057929;28;20197;-55
2022/06/10 13:00:42;;;;;;;1.65;0.80;;;23.10;98.60;;;;;;5057382;28;20201;-54
2022/06/10 13:03:31;;;;;;;1.67;1.05;;;23.10;98.40;;;;;;5051659;28;20689;-54
2022/06/10 13:06:05;;;;;;;0.60;0.60;;;23.10;98.00;;;;;;5052403;28;20756;-55
2022/06/10 13:08:47;;;;;;;0.80;0.80;;;23.10;98.10;;;;;;5052688;28;20197;-52
2022/06/10 13:11:30;;;;;;;0.77;0.77;;;23.10;98.20;;;;;;5052368;28;20250;-49
2022/06/10 13:14:16;;;;;;;0.90;0.90;;;23.10;98.30;;;;;;5052414;28;20193;-47
2022/06/10 13:16:47;;;;;;;0.70;0.70;;;23.10;98.40;;;;;;5054806;28;20229;-55
2022/06/10 13:19:37;;;;;;;1.30;0.75;;;23.10;98.40;;;;;;5056514;28;20678;-52
2022/06/10 13:22:34;;;;;;;0.90;0.90;;;23.10;98.40;;;;;;5052808;28;20245;-54
2022/06/10 13:25:26;;;;;;;0.60;0.60;;;23.10;98.30;;;;;;5051830;28;20681;-54